sensor_id;sensor_type;location;lat;lon;timestamp;temperature;humidity
3614;DHT22;1821;50.936;6.854;2022-08-01T00:00:29;22.30;99.90
3614;DHT22;1821;50.936;6.854;2022-08-01T00:01:14;22.20;99.90
3614;DHT22;1821;50.936;6.854;2022-08-01T00:01:56;22.20;99.90
3614;DHT22;1821;50.936;6.854;2022-08-01T00:02:38;22.20;99.90
3614;DHT22;1821;50.936;6.854;2022-08-01T00:03:20;22.20;99.90
3614;DHT22;1821;50.936;6.854;2022-08-01T00:04:02;22.30;99.90
3614;DHT22;1821;50.936;6.854;2022-08-01T00:04:44;22.30;99.90
3614;DHT22;1821;50.936;6.854;2022-08-01T00:05:26;22.20;99.90
3614;DHT22;1821;50.936;6.854;2022-08-01T00:06:08;22.20;99.90
3614;DHT22;1821;50.936;6.854;2022-08-01T00:06:49;22.20;99.90
3614;DHT22;1821;50.936;6.854;2022-08-01T00:07:32;22.20;99.90
3614;DHT22;1821;50.936;6.854;2022-08-01T00:08:14;22.30;99.90
3614;DHT22;1821;50.936;6.854;2022-08-01T00:08:56;22.20;99.90
3614;DHT22;1821;50.936;6.854;2022-08-01T00:09:37;22.30;99.90
3614;DHT22;1821;50.936;6.854;2022-08-01T00:10:19;22.20;99.90
3614;DHT22;1821;50.936;6.854;2022-08-01T00:11:01;22.30;99.90
3614;DHT22;1821;50.936;6.854;2022-08-01T00:11:43;22.20;99.90
3614;DHT22;1821;50.936;6.854;2022-08-01T00:12:25;22.20;99.90
3614;DHT22;1821;50.936;6.854;2022-08-01T00:13:07;22.30;99.90
3614;DHT22;1821;50.936;6.854;2022-08-01T00:13:51;22.20;99.90
3614;DHT22;1821;50.936;6.854;2022-08-01T00:14:32;22.30;99.90
3614;DHT22;1821;50.936;6.854;2022-08-01T00:15:15;22.10;99.90
3614;DHT22;1821;50.936;6.854;2022-08-01T00:15:57;22.10;99.90
3614;DHT22;1821;50.936;6.854;2022-08-01T00:16:39;22.10;99.90
3614;DHT22;1821;50.936;6.854;2022-08-01T00:17:21;22.20;99.90
3614;DHT22;1821;50.936;6.854;2022-08-01T00:18:03;22.20;99.90
3614;DHT22;1821;50.936;6.854;2022-08-01T00:18:45;22.10;99.90
3614;DHT22;1821;50.936;6.854;2022-08-01T00:19:26;22.10;99.90
3614;DHT22;1821;50.936;6.854;2022-08-01T00:20:10;22.10;99.90
3614;DHT22;1821;50.936;6.854;2022-08-01T00:20:52;22.00;99.90
3614;DHT22;1821;50.936;6.854;2022-08-01T00:21:34;22.20;99.90
3614;DHT22;1821;50.936;6.854;2022-08-01T00:22:16;22.30;99.90
3614;DHT22;1821;50.936;6.854;2022-08-01T00:22:57;22.40;99.90
3614;DHT22;1821;50.936;6.854;2022-08-01T00:23:39;22.10;99.90
3614;DHT22;1821;50.936;6.854;2022-08-01T00:24:21;22.20;99.90
3614;DHT22;1821;50.936;6.854;2022-08-01T00:25:04;22.40;99.90
3614;DHT22;1821;50.936;6.854;2022-08-01T00:25:46;22.20;99.90
3614;DHT22;1821;50.936;6.854;2022-08-01T00:26:28;22.20;99.90
3614;DHT22;1821;50.936;6.854;2022-08-01T00:27:10;22.10;99.90
3614;DHT22;1821;50.936;6.854;2022-08-01T00:27:52;22.10;99.90
3614;DHT22;1821;50.936;6.854;2022-08-01T00:28:34;22.10;99.90
3614;DHT22;1821;50.936;6.854;2022-08-01T00:29:16;22.30;99.90
3614;DHT22;1821;50.936;6.854;2022-08-01T00:30:18;22.10;99.90
3614;DHT22;1821;50.936;6.854;2022-08-01T00:31:00;21.90;99.90
3614;DHT22;1821;50.936;6.854;2022-08-01T00:31:41;21.90;99.90
3614;DHT22;1821;50.936;6.854;2022-08-01T00:32:24;22.00;99.90
3614;DHT22;1821;50.936;6.854;2022-08-01T00:33:05;22.00;99.90
3614;DHT22;1821;50.936;6.854;2022-08-01T00:33:47;22.00;99.90
3614;DHT22;1821;50.936;6.854;2022-08-01T00:34:29;22.00;99.90
3614;DHT22;1821;50.936;6.854;2022-08-01T00:35:11;22.10;99.90
3614;DHT22;1821;50.936;6.854;2022-08-01T00:35:53;22.00;99.90
3614;DHT22;1821;50.936;6.854;2022-08-01T00:36:34;22.00;99.90
3614;DHT22;1821;50.936;6.854;2022-08-01T00:37:16;21.90;99.90
3614;DHT22;1821;50.936;6.854;2022-08-01T00:37:58;22.10;99.90
3614;DHT22;1821;50.936;6.854;2022-08-01T00:38:40;22.10;99.90
3614;DHT22;1821;50.936;6.854;2022-08-01T00:39:21;22.00;99.90
3614;DHT22;1821;50.936;6.854;2022-08-01T00:40:04;22.10;99.90
3614;DHT22;1821;50.936;6.854;2022-08-01T00:40:46;22.00;99.90
3614;DHT22;1821;50.936;6.854;2022-08-01T00:41:27;21.90;99.90
3614;DHT22;1821;50.936;6.854;2022-08-01T00:42:11;21.70;99.90
3614;DHT22;1821;50.936;6.854;2022-08-01T00:42:53;21.90;99.90
3614;DHT22;1821;50.936;6.854;2022-08-01T00:43:35;21.90;99.90
3614;DHT22;1821;50.936;6.854;2022-08-01T00:44:16;21.90;99.90
3614;DHT22;1821;50.936;6.854;2022-08-01T00:44:58;21.90;99.90
3614;DHT22;1821;50.936;6.854;2022-08-01T00:45:40;21.70;99.90
3614;DHT22;1821;50.936;6.854;2022-08-01T00:46:22;21.80;99.90
3614;DHT22;1821;50.936;6.854;2022-08-01T00:47:05;21.80;99.90
3614;DHT22;1821;50.936;6.854;2022-08-01T00:47:47;21.70;99.90
3614;DHT22;1821;50.936;6.854;2022-08-01T00:48:35;21.70;99.90
3614;DHT22;1821;50.936;6.854;2022-08-01T00:49:17;21.70;99.90
3614;DHT22;1821;50.936;6.854;2022-08-01T00:49:59;21.70;99.90
3614;DHT22;1821;50.936;6.854;2022-08-01T00:50:41;21.60;99.90
3614;DHT22;1821;50.936;6.854;2022-08-01T00:51:23;21.70;99.90
3614;DHT22;1821;50.936;6.854;2022-08-01T00:52:05;21.80;99.90
3614;DHT22;1821;50.936;6.854;2022-08-01T00:52:48;21.70;99.90
3614;DHT22;1821;50.936;6.854;2022-08-01T00:53:32;21.70;99.90
3614;DHT22;1821;50.936;6.854;2022-08-01T00:54:32;21.80;99.90
3614;DHT22;1821;50.936;6.854;2022-08-01T00:55:15;21.70;99.90
3614;DHT22;1821;50.936;6.854;2022-08-01T00:55:57;21.70;99.90
3614;DHT22;1821;50.936;6.854;2022-08-01T00:56:39;21.70;99.90
3614;DHT22;1821;50.936;6.854;2022-08-01T00:57:21;21.70;99.90
3614;DHT22;1821;50.936;6.854;2022-08-01T00:58:23;21.60;99.90
3614;DHT22;1821;50.936;6.854;2022-08-01T00:59:06;21.60;99.90
3614;DHT22;1821;50.936;6.854;2022-08-01T00:59:49;21.60;99.90
3614;DHT22;1821;50.936;6.854;2022-08-01T01:00:31;21.60;99.90
3614;DHT22;1821;50.936;6.854;2022-08-01T01:01:33;21.80;99.90
3614;DHT22;1821;50.936;6.854;2022-08-01T01:02:20;21.60;99.90
3614;DHT22;1821;50.936;6.854;2022-08-01T01:03:02;21.60;99.90
3614;DHT22;1821;50.936;6.854;2022-08-01T01:03:44;21.60;99.90
3614;DHT22;1821;50.936;6.854;2022-08-01T01:04:39;21.50;99.90
3614;DHT22;1821;50.936;6.854;2022-08-01T01:05:21;21.50;99.90
3614;DHT22;1821;50.936;6.854;2022-08-01T01:07:48;21.50;99.90
3614;DHT22;1821;50.936;6.854;2022-08-01T01:08:37;21.60;99.90
3614;DHT22;1821;50.936;6.854;2022-08-01T01:09:26;21.10;99.90
3614;DHT22;1821;50.936;6.854;2022-08-01T01:11:25;21.60;99.90
3614;DHT22;1821;50.936;6.854;2022-08-01T01:12:22;21.50;99.90
3614;DHT22;1821;50.936;6.854;2022-08-01T01:13:13;21.60;99.90
3614;DHT22;1821;50.936;6.854;2022-08-01T01:14:13;21.60;99.90
3614;DHT22;1821;50.936;6.854;2022-08-01T01:16:31;21.50;99.90
3614;DHT22;1821;50.936;6.854;2022-08-01T01:17:17;21.50;99.90
3614;DHT22;1821;50.936;6.854;2022-08-01T01:18:27;21.60;99.90
3614;DHT22;1821;50.936;6.854;2022-08-01T01:19:17;21.60;99.90
3614;DHT22;1821;50.936;6.854;2022-08-01T01:20:03;21.60;99.90
3614;DHT22;1821;50.936;6.854;2022-08-01T01:20:55;21.70;99.90
3614;DHT22;1821;50.936;6.854;2022-08-01T01:25:02;21.60;99.90
3614;DHT22;1821;50.936;6.854;2022-08-01T01:28:09;21.30;99.90
3614;DHT22;1821;50.936;6.854;2022-08-01T01:29:00;21.40;99.90
3614;DHT22;1821;50.936;6.854;2022-08-01T01:29:48;21.30;99.90
3614;DHT22;1821;50.936;6.854;2022-08-01T01:30:43;21.40;99.90
3614;DHT22;1821;50.936;6.854;2022-08-01T01:31:27;21.40;99.90
3614;DHT22;1821;50.936;6.854;2022-08-01T01:32:17;21.40;99.90
3614;DHT22;1821;50.936;6.854;2022-08-01T01:33:10;21.30;99.90
3614;DHT22;1821;50.936;6.854;2022-08-01T01:33:54;21.30;99.90
3614;DHT22;1821;50.936;6.854;2022-08-01T01:34:39;21.40;99.90
3614;DHT22;1821;50.936;6.854;2022-08-01T01:35:24;21.40;99.90
3614;DHT22;1821;50.936;6.854;2022-08-01T01:36:09;21.40;99.90
3614;DHT22;1821;50.936;6.854;2022-08-01T01:36:54;21.50;99.90
3614;DHT22;1821;50.936;6.854;2022-08-01T01:37:39;21.50;99.90
3614;DHT22;1821;50.936;6.854;2022-08-01T01:38:24;21.60;99.90
3614;DHT22;1821;50.936;6.854;2022-08-01T01:39:07;21.40;99.90
3614;DHT22;1821;50.936;6.854;2022-08-01T01:39:51;21.50;99.90
3614;DHT22;1821;50.936;6.854;2022-08-01T01:40:36;21.30;99.90
3614;DHT22;1821;50.936;6.854;2022-08-01T01:41:18;21.30;99.90
3614;DHT22;1821;50.936;6.854;2022-08-01T01:42:02;21.40;99.90
3614;DHT22;1821;50.936;6.854;2022-08-01T01:42:46;21.40;99.90
3614;DHT22;1821;50.936;6.854;2022-08-01T01:43:29;21.30;99.90
3614;DHT22;1821;50.936;6.854;2022-08-01T01:44:15;21.30;99.90
3614;DHT22;1821;50.936;6.854;2022-08-01T01:45:00;21.40;99.90
3614;DHT22;1821;50.936;6.854;2022-08-01T01:45:43;21.60;99.90
3614;DHT22;1821;50.936;6.854;2022-08-01T01:46:26;21.40;99.90
3614;DHT22;1821;50.936;6.854;2022-08-01T01:47:12;21.40;99.90
3614;DHT22;1821;50.936;6.854;2022-08-01T01:47:55;21.30;99.90
3614;DHT22;1821;50.936;6.854;2022-08-01T01:48:38;21.30;99.90
3614;DHT22;1821;50.936;6.854;2022-08-01T01:49:26;21.30;99.90
3614;DHT22;1821;50.936;6.854;2022-08-01T01:50:10;21.20;99.90
3614;DHT22;1821;50.936;6.854;2022-08-01T01:50:53;21.20;99.90
3614;DHT22;1821;50.936;6.854;2022-08-01T01:51:38;21.30;99.90
3614;DHT22;1821;50.936;6.854;2022-08-01T01:52:21;21.30;99.90
3614;DHT22;1821;50.936;6.854;2022-08-01T01:53:07;21.30;99.90
3614;DHT22;1821;50.936;6.854;2022-08-01T01:53:56;21.30;99.90
3614;DHT22;1821;50.936;6.854;2022-08-01T01:54:47;21.30;99.90
3614;DHT22;1821;50.936;6.854;2022-08-01T01:55:30;21.20;99.90
3614;DHT22;1821;50.936;6.854;2022-08-01T01:56:30;21.20;99.90
3614;DHT22;1821;50.936;6.854;2022-08-01T01:57:13;21.30;99.90
3614;DHT22;1821;50.936;6.854;2022-08-01T01:57:56;21.40;99.90
3614;DHT22;1821;50.936;6.854;2022-08-01T01:58:39;21.30;99.90
3614;DHT22;1821;50.936;6.854;2022-08-01T01:59:25;21.50;99.90
3614;DHT22;1821;50.936;6.854;2022-08-01T02:00:10;21.50;99.90
3614;DHT22;1821;50.936;6.854;2022-08-01T02:00:55;21.40;99.90
3614;DHT22;1821;50.936;6.854;2022-08-01T02:01:38;21.30;99.90
3614;DHT22;1821;50.936;6.854;2022-08-01T02:02:41;21.40;99.90
3614;DHT22;1821;50.936;6.854;2022-08-01T02:03:24;21.40;99.90
3614;DHT22;1821;50.936;6.854;2022-08-01T02:04:09;21.30;99.90
3614;DHT22;1821;50.936;6.854;2022-08-01T02:04:51;21.30;99.90
3614;DHT22;1821;50.936;6.854;2022-08-01T02:05:35;21.20;99.90
3614;DHT22;1821;50.936;6.854;2022-08-01T02:06:18;21.30;99.90
3614;DHT22;1821;50.936;6.854;2022-08-01T02:07:00;21.20;99.90
3614;DHT22;1821;50.936;6.854;2022-08-01T02:07:43;21.40;99.90
3614;DHT22;1821;50.936;6.854;2022-08-01T02:08:25;21.30;99.90
3614;DHT22;1821;50.936;6.854;2022-08-01T02:09:11;21.10;99.90
3614;DHT22;1821;50.936;6.854;2022-08-01T02:09:56;21.30;99.90
3614;DHT22;1821;50.936;6.854;2022-08-01T02:10:40;21.20;99.90
3614;DHT22;1821;50.936;6.854;2022-08-01T02:11:22;21.20;99.90
3614;DHT22;1821;50.936;6.854;2022-08-01T02:12:05;21.30;99.90
3614;DHT22;1821;50.936;6.854;2022-08-01T02:12:50;21.20;99.90
3614;DHT22;1821;50.936;6.854;2022-08-01T02:13:33;21.20;99.90
3614;DHT22;1821;50.936;6.854;2022-08-01T02:14:17;21.20;99.90
3614;DHT22;1821;50.936;6.854;2022-08-01T02:15:00;21.20;99.90
3614;DHT22;1821;50.936;6.854;2022-08-01T02:15:44;21.20;99.90
3614;DHT22;1821;50.936;6.854;2022-08-01T02:16:43;21.30;99.90
3614;DHT22;1821;50.936;6.854;2022-08-01T02:17:27;21.20;99.90
3614;DHT22;1821;50.936;6.854;2022-08-01T02:18:10;21.20;99.90
3614;DHT22;1821;50.936;6.854;2022-08-01T02:18:53;21.10;99.90
3614;DHT22;1821;50.936;6.854;2022-08-01T02:19:35;21.40;99.90
3614;DHT22;1821;50.936;6.854;2022-08-01T02:20:19;21.20;99.90
3614;DHT22;1821;50.936;6.854;2022-08-01T02:21:04;21.30;99.90
3614;DHT22;1821;50.936;6.854;2022-08-01T02:21:57;21.30;99.90
3614;DHT22;1821;50.936;6.854;2022-08-01T02:22:52;21.20;99.90
3614;DHT22;1821;50.936;6.854;2022-08-01T02:23:36;21.20;99.90
3614;DHT22;1821;50.936;6.854;2022-08-01T02:25:02;21.30;99.90
3614;DHT22;1821;50.936;6.854;2022-08-01T02:25:55;21.20;99.90
3614;DHT22;1821;50.936;6.854;2022-08-01T02:26:53;21.30;99.90
3614;DHT22;1821;50.936;6.854;2022-08-01T02:27:59;21.10;99.90
3614;DHT22;1821;50.936;6.854;2022-08-01T02:29:06;21.20;99.90
3614;DHT22;1821;50.936;6.854;2022-08-01T02:30:00;21.20;99.90
3614;DHT22;1821;50.936;6.854;2022-08-01T02:30:46;21.20;99.90
3614;DHT22;1821;50.936;6.854;2022-08-01T02:31:32;21.30;99.90
3614;DHT22;1821;50.936;6.854;2022-08-01T02:32:23;21.20;99.90
3614;DHT22;1821;50.936;6.854;2022-08-01T02:33:17;21.20;99.90
3614;DHT22;1821;50.936;6.854;2022-08-01T02:34:03;21.10;99.90
3614;DHT22;1821;50.936;6.854;2022-08-01T02:34:49;21.00;99.90
3614;DHT22;1821;50.936;6.854;2022-08-01T02:35:34;21.10;99.90
3614;DHT22;1821;50.936;6.854;2022-08-01T02:36:37;21.20;99.90
3614;DHT22;1821;50.936;6.854;2022-08-01T02:37:20;21.30;99.90
3614;DHT22;1821;50.936;6.854;2022-08-01T02:38:04;21.20;99.90
3614;DHT22;1821;50.936;6.854;2022-08-01T02:38:46;21.20;99.90
3614;DHT22;1821;50.936;6.854;2022-08-01T02:39:30;21.30;99.90
3614;DHT22;1821;50.936;6.854;2022-08-01T02:40:13;21.20;99.90
3614;DHT22;1821;50.936;6.854;2022-08-01T02:40:59;21.20;99.90
3614;DHT22;1821;50.936;6.854;2022-08-01T02:41:45;21.30;99.90
3614;DHT22;1821;50.936;6.854;2022-08-01T02:42:29;21.30;99.90
3614;DHT22;1821;50.936;6.854;2022-08-01T02:43:13;21.30;99.90
3614;DHT22;1821;50.936;6.854;2022-08-01T02:44:00;21.30;99.90
3614;DHT22;1821;50.936;6.854;2022-08-01T02:44:44;21.30;99.90
3614;DHT22;1821;50.936;6.854;2022-08-01T02:45:29;21.20;99.90
3614;DHT22;1821;50.936;6.854;2022-08-01T02:46:17;21.30;99.90
3614;DHT22;1821;50.936;6.854;2022-08-01T02:47:04;21.10;99.90
3614;DHT22;1821;50.936;6.854;2022-08-01T02:47:48;21.20;99.90
3614;DHT22;1821;50.936;6.854;2022-08-01T02:48:33;21.20;99.90
3614;DHT22;1821;50.936;6.854;2022-08-01T02:49:18;21.10;99.90
3614;DHT22;1821;50.936;6.854;2022-08-01T02:50:03;21.00;99.90
3614;DHT22;1821;50.936;6.854;2022-08-01T02:50:48;21.00;99.90
3614;DHT22;1821;50.936;6.854;2022-08-01T02:51:31;21.10;99.90
3614;DHT22;1821;50.936;6.854;2022-08-01T02:52:15;21.20;99.90
3614;DHT22;1821;50.936;6.854;2022-08-01T02:52:58;20.90;99.90
3614;DHT22;1821;50.936;6.854;2022-08-01T02:53:41;21.10;99.90
3614;DHT22;1821;50.936;6.854;2022-08-01T02:54:25;21.20;99.90
3614;DHT22;1821;50.936;6.854;2022-08-01T02:55:08;21.10;99.90
3614;DHT22;1821;50.936;6.854;2022-08-01T02:55:52;21.20;99.90
3614;DHT22;1821;50.936;6.854;2022-08-01T02:56:36;21.20;99.90
3614;DHT22;1821;50.936;6.854;2022-08-01T02:57:18;21.20;99.90
3614;DHT22;1821;50.936;6.854;2022-08-01T02:58:01;21.10;99.90
3614;DHT22;1821;50.936;6.854;2022-08-01T02:58:45;21.20;99.90
3614;DHT22;1821;50.936;6.854;2022-08-01T02:59:29;21.20;99.90
3614;DHT22;1821;50.936;6.854;2022-08-01T03:00:14;21.20;99.90
3614;DHT22;1821;50.936;6.854;2022-08-01T03:00:57;21.20;99.90
3614;DHT22;1821;50.936;6.854;2022-08-01T03:01:40;21.20;99.90
3614;DHT22;1821;50.936;6.854;2022-08-01T03:02:24;21.30;99.90
3614;DHT22;1821;50.936;6.854;2022-08-01T03:03:08;21.20;99.90
3614;DHT22;1821;50.936;6.854;2022-08-01T03:03:50;21.10;99.90
3614;DHT22;1821;50.936;6.854;2022-08-01T03:04:37;21.20;99.90
3614;DHT22;1821;50.936;6.854;2022-08-01T03:05:19;21.10;99.90
3614;DHT22;1821;50.936;6.854;2022-08-01T03:06:02;21.10;99.90
3614;DHT22;1821;50.936;6.854;2022-08-01T03:06:44;21.10;99.90
3614;DHT22;1821;50.936;6.854;2022-08-01T03:07:28;21.10;99.90
3614;DHT22;1821;50.936;6.854;2022-08-01T03:08:19;21.00;99.90
3614;DHT22;1821;50.936;6.854;2022-08-01T03:09:03;21.10;99.90
3614;DHT22;1821;50.936;6.854;2022-08-01T03:09:46;21.10;99.90
3614;DHT22;1821;50.936;6.854;2022-08-01T03:10:29;21.00;99.90
3614;DHT22;1821;50.936;6.854;2022-08-01T03:11:12;21.20;99.90
3614;DHT22;1821;50.936;6.854;2022-08-01T03:11:58;21.20;99.90
3614;DHT22;1821;50.936;6.854;2022-08-01T03:12:41;21.10;99.90
3614;DHT22;1821;50.936;6.854;2022-08-01T03:13:25;21.10;99.90
3614;DHT22;1821;50.936;6.854;2022-08-01T03:14:07;21.10;99.90
3614;DHT22;1821;50.936;6.854;2022-08-01T03:14:52;21.10;99.90
3614;DHT22;1821;50.936;6.854;2022-08-01T03:15:37;21.00;99.90
3614;DHT22;1821;50.936;6.854;2022-08-01T03:16:21;21.10;99.90
3614;DHT22;1821;50.936;6.854;2022-08-01T03:17:05;21.10;99.90
3614;DHT22;1821;50.936;6.854;2022-08-01T03:17:47;21.00;99.90
3614;DHT22;1821;50.936;6.854;2022-08-01T03:18:31;21.10;99.90
3614;DHT22;1821;50.936;6.854;2022-08-01T03:19:14;21.00;99.90
3614;DHT22;1821;50.936;6.854;2022-08-01T03:19:58;21.10;99.90
3614;DHT22;1821;50.936;6.854;2022-08-01T03:20:43;20.90;99.90
3614;DHT22;1821;50.936;6.854;2022-08-01T03:21:26;21.10;99.90
3614;DHT22;1821;50.936;6.854;2022-08-01T03:22:11;21.10;99.90
3614;DHT22;1821;50.936;6.854;2022-08-01T03:22:54;20.90;99.90
3614;DHT22;1821;50.936;6.854;2022-08-01T03:23:38;21.00;99.90
3614;DHT22;1821;50.936;6.854;2022-08-01T03:24:21;20.90;99.90
3614;DHT22;1821;50.936;6.854;2022-08-01T03:25:05;20.90;99.90
3614;DHT22;1821;50.936;6.854;2022-08-01T03:25:49;21.10;99.90
3614;DHT22;1821;50.936;6.854;2022-08-01T03:26:34;21.10;99.90
3614;DHT22;1821;50.936;6.854;2022-08-01T03:27:21;21.00;99.90
3614;DHT22;1821;50.936;6.854;2022-08-01T03:28:05;21.00;99.90
3614;DHT22;1821;50.936;6.854;2022-08-01T03:28:48;21.00;99.90
3614;DHT22;1821;50.936;6.854;2022-08-01T03:29:32;20.90;99.90
3614;DHT22;1821;50.936;6.854;2022-08-01T03:30:14;21.10;99.90
3614;DHT22;1821;50.936;6.854;2022-08-01T03:30:58;21.10;99.90
3614;DHT22;1821;50.936;6.854;2022-08-01T03:31:40;21.00;99.90
3614;DHT22;1821;50.936;6.854;2022-08-01T03:32:27;20.90;99.90
3614;DHT22;1821;50.936;6.854;2022-08-01T03:33:11;20.90;99.90
3614;DHT22;1821;50.936;6.854;2022-08-01T03:33:55;19.60;99.90
3614;DHT22;1821;50.936;6.854;2022-08-01T03:34:37;21.00;99.90
3614;DHT22;1821;50.936;6.854;2022-08-01T03:35:19;21.00;99.90
3614;DHT22;1821;50.936;6.854;2022-08-01T03:36:05;21.00;99.90
3614;DHT22;1821;50.936;6.854;2022-08-01T03:37:11;21.00;99.90
3614;DHT22;1821;50.936;6.854;2022-08-01T03:37:55;21.00;99.90
3614;DHT22;1821;50.936;6.854;2022-08-01T03:38:58;21.00;99.90
3614;DHT22;1821;50.936;6.854;2022-08-01T03:39:54;20.90;99.90
3614;DHT22;1821;50.936;6.854;2022-08-01T03:40:43;21.00;99.90
3614;DHT22;1821;50.936;6.854;2022-08-01T03:41:30;21.10;99.90
3614;DHT22;1821;50.936;6.854;2022-08-01T03:42:20;20.90;99.90
3614;DHT22;1821;50.936;6.854;2022-08-01T03:43:08;21.00;99.90
3614;DHT22;1821;50.936;6.854;2022-08-01T03:43:56;21.10;99.90
3614;DHT22;1821;50.936;6.854;2022-08-01T03:44:39;21.00;99.90
3614;DHT22;1821;50.936;6.854;2022-08-01T03:45:27;21.00;99.90
3614;DHT22;1821;50.936;6.854;2022-08-01T03:46:13;20.90;99.90
3614;DHT22;1821;50.936;6.854;2022-08-01T03:47:04;20.90;99.90
3614;DHT22;1821;50.936;6.854;2022-08-01T03:47:49;20.90;99.90
3614;DHT22;1821;50.936;6.854;2022-08-01T03:48:35;20.90;99.90
3614;DHT22;1821;50.936;6.854;2022-08-01T03:49:22;20.90;99.90
3614;DHT22;1821;50.936;6.854;2022-08-01T03:50:05;20.90;99.90
3614;DHT22;1821;50.936;6.854;2022-08-01T03:50:53;21.10;99.90
3614;DHT22;1821;50.936;6.854;2022-08-01T03:51:37;21.00;99.90
3614;DHT22;1821;50.936;6.854;2022-08-01T03:52:19;21.00;99.90
3614;DHT22;1821;50.936;6.854;2022-08-01T03:53:06;21.10;99.90
3614;DHT22;1821;50.936;6.854;2022-08-01T03:53:51;20.80;99.90
3614;DHT22;1821;50.936;6.854;2022-08-01T03:54:39;20.90;99.90
3614;DHT22;1821;50.936;6.854;2022-08-01T03:55:22;20.90;99.90
3614;DHT22;1821;50.936;6.854;2022-08-01T03:56:05;20.90;99.90
3614;DHT22;1821;50.936;6.854;2022-08-01T03:56:51;21.00;99.90
3614;DHT22;1821;50.936;6.854;2022-08-01T03:57:33;20.80;99.90
3614;DHT22;1821;50.936;6.854;2022-08-01T03:58:17;20.90;99.90
3614;DHT22;1821;50.936;6.854;2022-08-01T03:59:01;20.90;99.90
3614;DHT22;1821;50.936;6.854;2022-08-01T03:59:45;21.00;99.90
3614;DHT22;1821;50.936;6.854;2022-08-01T04:00:27;20.90;99.90
3614;DHT22;1821;50.936;6.854;2022-08-01T04:01:10;20.90;99.90
3614;DHT22;1821;50.936;6.854;2022-08-01T04:01:57;20.80;99.90
3614;DHT22;1821;50.936;6.854;2022-08-01T04:02:39;20.80;99.90
3614;DHT22;1821;50.936;6.854;2022-08-01T04:03:22;20.80;99.90
3614;DHT22;1821;50.936;6.854;2022-08-01T04:04:04;20.80;99.90
3614;DHT22;1821;50.936;6.854;2022-08-01T04:04:47;21.00;99.90
3614;DHT22;1821;50.936;6.854;2022-08-01T04:05:29;21.00;99.90
3614;DHT22;1821;50.936;6.854;2022-08-01T04:06:11;20.90;99.90
3614;DHT22;1821;50.936;6.854;2022-08-01T04:06:55;20.90;99.90
3614;DHT22;1821;50.936;6.854;2022-08-01T04:07:37;21.00;99.90
3614;DHT22;1821;50.936;6.854;2022-08-01T04:08:20;21.00;99.90
3614;DHT22;1821;50.936;6.854;2022-08-01T04:09:11;20.90;99.90
3614;DHT22;1821;50.936;6.854;2022-08-01T04:09:55;20.90;99.90
3614;DHT22;1821;50.936;6.854;2022-08-01T04:10:37;20.90;99.90
3614;DHT22;1821;50.936;6.854;2022-08-01T04:11:19;20.90;99.90
3614;DHT22;1821;50.936;6.854;2022-08-01T04:12:01;20.90;99.90
3614;DHT22;1821;50.936;6.854;2022-08-01T04:12:53;21.00;99.90
3614;DHT22;1821;50.936;6.854;2022-08-01T04:13:35;21.00;99.90
3614;DHT22;1821;50.936;6.854;2022-08-01T04:14:18;21.00;99.90
3614;DHT22;1821;50.936;6.854;2022-08-01T04:14:59;21.10;99.90
3614;DHT22;1821;50.936;6.854;2022-08-01T04:15:41;20.90;99.90
3614;DHT22;1821;50.936;6.854;2022-08-01T04:16:23;20.90;99.90
3614;DHT22;1821;50.936;6.854;2022-08-01T04:17:05;21.00;99.90
3614;DHT22;1821;50.936;6.854;2022-08-01T04:17:47;21.00;99.90
3614;DHT22;1821;50.936;6.854;2022-08-01T04:18:29;21.00;99.90
3614;DHT22;1821;50.936;6.854;2022-08-01T04:19:11;21.00;99.90
3614;DHT22;1821;50.936;6.854;2022-08-01T04:19:53;20.80;99.90
3614;DHT22;1821;50.936;6.854;2022-08-01T04:20:35;21.00;99.90
3614;DHT22;1821;50.936;6.854;2022-08-01T04:21:25;21.00;99.90
3614;DHT22;1821;50.936;6.854;2022-08-01T04:22:13;20.90;99.90
3614;DHT22;1821;50.936;6.854;2022-08-01T04:22:55;21.00;99.90
3614;DHT22;1821;50.936;6.854;2022-08-01T04:23:38;20.90;99.90
3614;DHT22;1821;50.936;6.854;2022-08-01T04:24:21;20.80;99.90
3614;DHT22;1821;50.936;6.854;2022-08-01T04:25:12;20.90;99.90
3614;DHT22;1821;50.936;6.854;2022-08-01T04:25:55;21.00;99.90
3614;DHT22;1821;50.936;6.854;2022-08-01T04:26:39;21.00;99.90
3614;DHT22;1821;50.936;6.854;2022-08-01T04:27:29;20.90;99.90
3614;DHT22;1821;50.936;6.854;2022-08-01T04:28:34;20.80;99.90
3614;DHT22;1821;50.936;6.854;2022-08-01T04:29:17;20.90;99.90
3614;DHT22;1821;50.936;6.854;2022-08-01T04:30:00;20.90;99.90
3614;DHT22;1821;50.936;6.854;2022-08-01T04:30:44;20.90;99.90
3614;DHT22;1821;50.936;6.854;2022-08-01T04:31:28;20.90;99.90
3614;DHT22;1821;50.936;6.854;2022-08-01T04:32:14;20.90;99.90
3614;DHT22;1821;50.936;6.854;2022-08-01T04:32:59;20.90;99.90
3614;DHT22;1821;50.936;6.854;2022-08-01T04:33:45;21.00;99.90
3614;DHT22;1821;50.936;6.854;2022-08-01T04:34:29;20.90;99.90
3614;DHT22;1821;50.936;6.854;2022-08-01T04:35:14;20.90;99.90
3614;DHT22;1821;50.936;6.854;2022-08-01T04:36:19;20.90;99.90
3614;DHT22;1821;50.936;6.854;2022-08-01T04:37:04;21.00;99.90
3614;DHT22;1821;50.936;6.854;2022-08-01T04:37:47;21.00;99.90
3614;DHT22;1821;50.936;6.854;2022-08-01T04:38:31;20.90;99.90
3614;DHT22;1821;50.936;6.854;2022-08-01T04:39:13;20.90;99.90
3614;DHT22;1821;50.936;6.854;2022-08-01T04:39:58;21.00;99.90
3614;DHT22;1821;50.936;6.854;2022-08-01T04:40:42;20.90;99.90
3614;DHT22;1821;50.936;6.854;2022-08-01T04:41:25;21.00;99.90
3614;DHT22;1821;50.936;6.854;2022-08-01T04:42:07;20.90;99.90
3614;DHT22;1821;50.936;6.854;2022-08-01T04:42:49;21.00;99.90
3614;DHT22;1821;50.936;6.854;2022-08-01T04:43:32;20.90;99.90
3614;DHT22;1821;50.936;6.854;2022-08-01T04:44:15;20.80;99.90
3614;DHT22;1821;50.936;6.854;2022-08-01T04:44:58;20.80;99.90
3614;DHT22;1821;50.936;6.854;2022-08-01T04:45:40;20.90;99.90
3614;DHT22;1821;50.936;6.854;2022-08-01T04:46:26;20.80;99.90
3614;DHT22;1821;50.936;6.854;2022-08-01T04:47:09;20.90;99.90
3614;DHT22;1821;50.936;6.854;2022-08-01T04:47:52;20.80;99.90
3614;DHT22;1821;50.936;6.854;2022-08-01T04:48:38;20.80;99.90
3614;DHT22;1821;50.936;6.854;2022-08-01T04:49:21;20.80;99.90
3614;DHT22;1821;50.936;6.854;2022-08-01T04:50:08;20.90;99.90
3614;DHT22;1821;50.936;6.854;2022-08-01T04:50:50;20.70;99.90
3614;DHT22;1821;50.936;6.854;2022-08-01T04:51:33;20.80;99.90
3614;DHT22;1821;50.936;6.854;2022-08-01T04:52:15;20.90;99.90
3614;DHT22;1821;50.936;6.854;2022-08-01T04:53:05;20.80;99.90
3614;DHT22;1821;50.936;6.854;2022-08-01T04:53:47;20.90;99.90
3614;DHT22;1821;50.936;6.854;2022-08-01T04:54:33;20.80;99.90
3614;DHT22;1821;50.936;6.854;2022-08-01T04:55:18;20.90;99.90
3614;DHT22;1821;50.936;6.854;2022-08-01T04:56:00;20.90;99.90
3614;DHT22;1821;50.936;6.854;2022-08-01T04:56:42;20.80;99.90
3614;DHT22;1821;50.936;6.854;2022-08-01T04:57:23;21.00;99.90
3614;DHT22;1821;50.936;6.854;2022-08-01T04:58:05;20.70;99.90
3614;DHT22;1821;50.936;6.854;2022-08-01T04:58:47;20.90;99.90
3614;DHT22;1821;50.936;6.854;2022-08-01T04:59:30;20.80;99.90
3614;DHT22;1821;50.936;6.854;2022-08-01T05:00:21;20.80;99.90
3614;DHT22;1821;50.936;6.854;2022-08-01T05:01:03;20.80;99.90
3614;DHT22;1821;50.936;6.854;2022-08-01T05:01:49;20.80;99.90
3614;DHT22;1821;50.936;6.854;2022-08-01T05:02:32;20.90;99.90
3614;DHT22;1821;50.936;6.854;2022-08-01T05:03:14;20.80;99.90
3614;DHT22;1821;50.936;6.854;2022-08-01T05:03:56;20.80;99.90
3614;DHT22;1821;50.936;6.854;2022-08-01T05:04:39;20.80;99.90